logo tempoitalia

Diretta Meteo Marrakech, Maroccolunedì 31 agosto ore 06:00

Mappa
Sereno 23 °C Sereno 24 Ore: T.min 22 T.max 40
Ponente Ovest/Sud-Ovest Km/h 11.1 Punto di rugiada: 14 °C Umidità: 56% Visibilità: 10 Km
Il sole sorge alle: 07:07 Il sole tramonta alle: 19:57
31 Agosto 2026 06:00 tempo osservato: Sereno Sereno 23 56 1016 vento: Nord O/SO 11.1
31 Agosto 2026 05:30 tempo osservato: Sereno Sereno 24 53 1016 vento: Nord O/NO 9.3
31 Agosto 2026 05:00 tempo osservato: Sereno Sereno 25 47 1016 vento: Nord N 5.5
31 Agosto 2026 04:30 tempo osservato: Sereno Sereno 24 50 1016 vento: Nord N 1.8
31 Agosto 2026 04:00 tempo osservato: Sereno Sereno 25 50 1016 vento: Nord N 5.5
31 Agosto 2026 03:30 tempo osservato: Sereno Sereno 25 47 1016 vento: Nord O/SO 7.4
31 Agosto 2026 03:00 tempo osservato: Sereno Sereno 25 47 1016 vento: Nord N 5.5
31 Agosto 2026 02:30 tempo osservato: Sereno Sereno 25 47 1016 vento: Nord O 7.4
31 Agosto 2026 02:00 tempo osservato: Sereno Sereno 26 44 1017 vento: Nord O/SO 7.4
31 Agosto 2026 01:30 tempo osservato: Sereno Sereno 27 42 1017 vento: Nord N 3.7
31 Agosto 2026 01:00 tempo osservato: Sereno Sereno 27 42 1017 vento: Nord N 5.5
31 Agosto 2026 00:30 tempo osservato: Sereno Sereno 28 39 1017 vento: Nord N 5.5
31 Agosto 2026 00:00 tempo osservato: Sereno Sereno 29 39 1017 vento: Nord N 3.7
30 Agosto 2026 23:30 tempo osservato: Sereno Sereno 29 39 1017 vento: Nord NE 7.4
30 Agosto 2026 23:00 tempo osservato: Sereno Sereno 30 37 1017 vento: Nord N/NE 7.4
30 Agosto 2026 22:30 tempo osservato: Sereno Sereno 31 33 1017 vento: Nord NE 13
30 Agosto 2026 22:00 tempo osservato: Sereno Sereno 31 33 1016 vento: Nord N/NE 16.7
30 Agosto 2026 21:30 tempo osservato: Sereno Sereno 32 33 1016 vento: Nord N/NE 16.7
30 Agosto 2026 21:00 tempo osservato: Sereno Sereno 33 31 1016 vento: Nord N 16.7
30 Agosto 2026 20:30 tempo osservato: Sereno Sereno 35 28 1015 vento: Nord N 14.8
30 Agosto 2026 20:00 tempo osservato: Nuvoloso Nuvoloso 36 25 1015 vento: Nord N 13
30 Agosto 2026 19:30 tempo osservato: Nuvoloso Nuvoloso 37 25 1015 vento: Nord N 16.7
30 Agosto 2026 19:00 tempo osservato: Nuvoloso Nuvoloso 38 24 1015 vento: Nord N 13
30 Agosto 2026 18:30 tempo osservato: Nuvoloso Nuvoloso 39 24 1015 vento: Nord NO 11.1
30 Agosto 2026 18:00 tempo osservato: Nuvoloso Nuvoloso 39 24 1015 vento: Nord O/NO 9.3
30 Agosto 2026 17:30 tempo osservato: Nuvoloso Nuvoloso 40 24 1015 vento: Nord N 9.3
30 Agosto 2026 17:00 tempo osservato: Nuvoloso Nuvoloso 39 24 1015 vento: Nord N 9.3
30 Agosto 2026 16:30 tempo osservato: Nuvoloso Nuvoloso 39 26 1015 vento: Nord N/NO 7.4
30 Agosto 2026 16:00 tempo osservato: Poco Nuvoloso Poco Nuvoloso 39 26 1015 vento: Nord NO 9.3
30 Agosto 2026 15:30 tempo osservato: Poco Nuvoloso Poco Nuvoloso 38 27 1015 vento: Nord N 9.3
30 Agosto 2026 15:00 tempo osservato: Sereno Sereno 38 27 1015 vento: Nord N 5.5
30 Agosto 2026 14:30 tempo osservato: Sereno Sereno 37 30 1016 vento: Nord N 3.7
30 Agosto 2026 14:00 tempo osservato: Sereno Sereno 36 32 1016 vento: Nord N 9.3
30 Agosto 2026 13:30 tempo osservato: Sereno Sereno 35 32 1016 vento: Nord N 9.3
30 Agosto 2026 13:00 tempo osservato: Sereno Sereno 34 34 1017 vento: Nord N 9.3
30 Agosto 2026 12:30 tempo osservato: Sereno Sereno 33 36 1017 vento: Nord N 9.3
30 Agosto 2026 12:00 tempo osservato: Sereno Sereno 32 40 1017 vento: Nord N 5.5
30 Agosto 2026 11:30 tempo osservato: Sereno Sereno 30 45 1017 vento: Nord N 5.5
30 Agosto 2026 11:00 tempo osservato: Sereno Sereno 30 45 1017 vento: Nord N 3.7
30 Agosto 2026 10:30 tempo osservato: Sereno Sereno 28 51 1017 vento: Nord N 3.7
30 Agosto 2026 10:00 tempo osservato: Sereno Sereno 27 50 1017 vento: Nord N 5.5
30 Agosto 2026 09:30 tempo osservato: Sereno Sereno 25 57 1017 vento: Nord N 5.5
30 Agosto 2026 09:00 tempo osservato: Sereno Sereno 24 60 1017 vento: Nord O 7.4
30 Agosto 2026 08:30 tempo osservato: Sereno Sereno 24 57 1017 vento: Nord O 7.4
30 Agosto 2026 08:00 tempo osservato: Sereno Sereno 23 60 1017 vento: Nord O 7.4
30 Agosto 2026 07:30 tempo osservato: Sereno Sereno 22 64 1016 vento: Nord N 5.5
30 Agosto 2026 07:00 tempo osservato: Sereno Sereno 22 60 1016 vento: Nord N 1.8